createdAt,value
2018-12-25T00:02:10.252Z,13.43
2018-12-25T00:05:32.739Z,14.70
2018-12-25T00:08:55.438Z,14.07
2018-12-25T00:12:17.991Z,12.90
2018-12-25T00:15:40.415Z,13.40
2018-12-25T00:19:06.250Z,14.13
2018-12-25T00:22:27.425Z,15.60
2018-12-25T00:25:49.675Z,15.37
2018-12-25T00:29:12.049Z,13.60
2018-12-25T00:32:34.515Z,11.47
2018-12-25T00:35:56.932Z,17.13
2018-12-25T00:39:19.273Z,16.57
2018-12-25T00:42:41.849Z,15.07
2018-12-25T00:46:04.775Z,16.23
2018-12-25T00:49:27.569Z,15.43
2018-12-25T00:52:50.238Z,17.37
2018-12-25T00:56:12.397Z,15.20
2018-12-25T00:59:34.521Z,15.27
2018-12-25T01:02:57.009Z,16.13
2018-12-25T01:06:19.512Z,15.40
2018-12-25T01:09:42.056Z,13.53
2018-12-25T01:13:04.837Z,18.23
2018-12-25T01:16:27.449Z,14.77
2018-12-25T01:19:50.150Z,14.93
2018-12-25T01:23:13.263Z,15.03
2018-12-25T01:26:35.986Z,14.10
2018-12-25T01:29:58.486Z,13.93
2018-12-25T01:33:21.238Z,11.63
2018-12-25T01:36:43.424Z,15.57
2018-12-25T01:40:06.228Z,18.97
2018-12-25T01:43:28.704Z,17.60
2018-12-25T01:46:51.324Z,21.03
2018-12-25T01:50:13.740Z,22.10
2018-12-25T01:53:36.210Z,19.63
2018-12-25T01:56:58.708Z,20.47
2018-12-25T02:00:21.944Z,23.23
2018-12-25T02:03:44.248Z,19.87
2018-12-25T02:07:06.716Z,16.93
2018-12-25T02:10:29.425Z,18.43
2018-12-25T02:13:51.768Z,13.60
2018-12-25T02:17:14.288Z,19.33
2018-12-25T02:20:36.661Z,22.30
2018-12-25T02:23:59.070Z,15.13
2018-12-25T02:27:21.633Z,15.23
2018-12-25T02:30:44.090Z,16.30
2018-12-25T02:34:06.219Z,18.30
2018-12-25T02:37:28.904Z,15.93
2018-12-25T02:40:51.256Z,15.77
2018-12-25T02:44:13.931Z,16.43
2018-12-25T02:47:36.314Z,15.50
2018-12-25T02:50:59.079Z,17.63
2018-12-25T02:54:21.277Z,21.33
2018-12-25T02:57:44.072Z,17.67
2018-12-25T03:01:06.510Z,14.30
2018-12-25T03:04:29.055Z,14.97
2018-12-25T03:07:51.696Z,16.50
2018-12-25T03:11:14.261Z,15.63
2018-12-25T03:14:36.973Z,16.03
2018-12-25T03:17:59.523Z,16.40
2018-12-25T03:21:22.149Z,20.70
2018-12-25T03:24:44.582Z,16.00
2018-12-25T03:28:07.033Z,18.23
2018-12-25T03:31:29.068Z,13.70
2018-12-25T03:34:51.438Z,14.70
2018-12-25T03:38:13.843Z,19.13
2018-12-25T03:41:36.775Z,17.23
2018-12-25T03:44:59.130Z,16.17
2018-12-25T03:48:21.802Z,13.53
2018-12-25T03:51:43.848Z,15.20
2018-12-25T03:55:05.945Z,12.00
2018-12-25T03:58:28.438Z,13.67
2018-12-25T04:01:51.231Z,11.37
2018-12-25T04:05:13.784Z,12.17
2018-12-25T04:08:35.956Z,12.03
2018-12-25T04:11:58.061Z,9.93
2018-12-25T04:15:20.228Z,11.37
2018-12-25T04:18:42.645Z,10.27
2018-12-25T04:22:05.233Z,9.93
2018-12-25T04:25:27.956Z,10.27
2018-12-25T04:28:50.331Z,13.10
2018-12-25T04:32:13.342Z,13.37
2018-12-25T04:35:35.995Z,12.03
2018-12-25T04:38:58.590Z,10.73
2018-12-25T04:42:21.174Z,9.07
2018-12-25T04:45:43.739Z,11.27
2018-12-25T04:49:06.188Z,10.63
2018-12-25T04:52:28.685Z,8.63
2018-12-25T04:55:51.381Z,9.97
2018-12-25T04:59:14.079Z,7.17
2018-12-25T05:02:36.589Z,11.03
2018-12-25T05:05:59.333Z,7.53
2018-12-25T05:09:21.857Z,10.23
2018-12-25T05:12:44.294Z,6.23
2018-12-25T05:16:06.682Z,9.67
2018-12-25T05:19:29.045Z,9.77
2018-12-25T05:22:51.432Z,8.83
2018-12-25T05:26:13.752Z,6.47
2018-12-25T05:29:36.470Z,6.07
2018-12-25T05:32:59.230Z,8.23
2018-12-25T05:36:21.391Z,8.53
2018-12-25T05:39:43.858Z,5.67
2018-12-25T05:43:06.645Z,5.23
2018-12-25T05:46:29.337Z,8.00
2018-12-25T05:49:51.769Z,4.90
2018-12-25T05:53:14.454Z,6.37
2018-12-25T05:56:36.938Z,7.90
2018-12-25T05:59:59.676Z,8.70
2018-12-25T06:03:22.522Z,7.13
2018-12-25T06:06:45.422Z,5.00
2018-12-25T06:10:08.216Z,7.80
2018-12-25T06:13:30.671Z,4.37
2018-12-25T06:16:53.200Z,5.87
2018-12-25T06:20:15.862Z,4.83
2018-12-25T06:23:38.329Z,8.87
2018-12-25T06:27:00.636Z,6.27
2018-12-25T06:30:23.088Z,4.70
2018-12-25T06:33:45.516Z,7.53
2018-12-25T06:37:07.938Z,7.70
2018-12-25T06:40:30.398Z,4.50
2018-12-25T06:43:52.990Z,5.83
2018-12-25T06:47:15.021Z,6.27
2018-12-25T06:50:37.449Z,4.10
2018-12-25T06:54:00.135Z,5.93
2018-12-25T06:57:22.934Z,5.77
2018-12-25T07:00:45.469Z,7.63
2018-12-25T07:04:08.127Z,6.53
2018-12-25T07:07:30.877Z,5.20
2018-12-25T07:10:53.441Z,5.03
2018-12-25T07:14:15.696Z,4.03
2018-12-25T07:17:38.174Z,5.10
2018-12-25T07:21:00.820Z,11.60
2018-12-25T07:24:23.652Z,3.53
2018-12-25T07:27:45.812Z,3.63
2018-12-25T07:31:08.426Z,6.83
2018-12-25T07:34:30.754Z,5.57
2018-12-25T07:37:53.572Z,8.63
2018-12-25T07:41:16.624Z,11.63
2018-12-25T07:44:39.546Z,6.10
2018-12-25T07:48:02.328Z,6.97
2018-12-25T07:51:25.240Z,7.83
2018-12-25T07:54:47.432Z,6.43
2018-12-25T07:58:10.000Z,7.70
2018-12-25T08:01:32.410Z,8.40
2018-12-25T08:04:54.765Z,8.50
2018-12-25T08:08:17.414Z,6.67
2018-12-25T08:11:39.707Z,10.30
2018-12-25T08:15:02.318Z,5.50
2018-12-25T08:18:24.704Z,7.57
2018-12-25T08:21:47.116Z,7.40
2018-12-25T08:25:09.886Z,7.63
2018-12-25T08:28:32.572Z,6.80
2018-12-25T08:31:54.642Z,11.80
2018-12-25T08:35:17.073Z,8.70
2018-12-25T08:38:39.612Z,5.20
2018-12-25T08:42:02.182Z,5.87
2018-12-25T08:45:24.733Z,6.23
2018-12-25T08:48:46.937Z,4.70
2018-12-25T08:52:09.345Z,7.83
2018-12-25T08:55:31.780Z,6.80
2018-12-25T08:58:54.150Z,4.60
2018-12-25T09:02:16.658Z,7.83
2018-12-25T09:05:39.195Z,3.63
2018-12-25T09:09:02.266Z,6.83
2018-12-25T09:12:24.566Z,6.73
2018-12-25T09:15:47.083Z,5.50
2018-12-25T09:19:09.298Z,7.23
2018-12-25T09:22:31.630Z,9.63
2018-12-25T09:25:54.319Z,6.87
2018-12-25T09:29:16.405Z,3.50
2018-12-25T09:32:38.831Z,4.40
2018-12-25T09:36:01.006Z,5.90
2018-12-25T09:39:23.485Z,6.13
2018-12-25T09:42:46.252Z,4.70
2018-12-25T09:46:08.415Z,5.37
2018-12-25T09:49:30.816Z,6.03
2018-12-25T09:52:53.298Z,8.40
2018-12-25T09:56:15.794Z,7.87
2018-12-25T09:59:38.258Z,6.00
2018-12-25T10:03:00.777Z,10.23
2018-12-25T10:06:23.311Z,5.40
2018-12-25T10:09:46.081Z,6.17
2018-12-25T10:13:08.724Z,10.10
2018-12-25T10:16:31.443Z,8.67
2018-12-25T10:19:53.788Z,3.43
2018-12-25T10:23:16.246Z,4.63
2018-12-25T10:26:38.429Z,6.47
2018-12-25T10:30:01.370Z,8.23
2018-12-25T10:33:23.903Z,6.50
2018-12-25T10:36:46.606Z,4.97
2018-12-25T10:40:09.241Z,5.33
2018-12-25T10:43:31.661Z,11.67
2018-12-25T10:46:54.095Z,4.37
2018-12-25T10:50:16.461Z,5.53
2018-12-25T10:53:39.103Z,5.37
2018-12-25T10:57:01.210Z,6.30
2018-12-25T11:00:24.680Z,5.07
2018-12-25T11:03:47.269Z,7.57
2018-12-25T11:07:09.670Z,11.20
2018-12-25T11:10:33.265Z,6.27
2018-12-25T11:13:55.637Z,7.63
2018-12-25T11:17:17.865Z,3.93
2018-12-25T11:20:40.332Z,7.10
2018-12-25T11:24:02.869Z,4.63
2018-12-25T11:27:25.649Z,5.37
2018-12-25T11:30:48.077Z,4.63
2018-12-25T11:34:10.831Z,12.10
2018-12-25T11:37:33.221Z,7.13
2018-12-25T11:40:55.673Z,7.43
2018-12-25T11:44:18.121Z,8.23
2018-12-25T11:47:40.227Z,4.73
2018-12-25T11:51:02.933Z,8.03
2018-12-25T11:54:25.109Z,4.87
2018-12-25T11:57:47.729Z,6.73
2018-12-25T12:01:10.605Z,6.57
2018-12-25T12:04:33.543Z,5.83
2018-12-25T12:07:56.118Z,6.10
2018-12-25T12:11:18.453Z,5.23
2018-12-25T12:14:41.361Z,6.47
2018-12-25T12:18:03.962Z,10.27
2018-12-25T12:21:26.418Z,5.97
2018-12-25T12:24:48.919Z,5.67
2018-12-25T12:28:10.973Z,5.10
2018-12-25T12:31:33.388Z,6.27
2018-12-25T12:34:55.781Z,9.17
2018-12-25T12:38:18.537Z,8.47
2018-12-25T12:41:40.825Z,6.47
2018-12-25T12:45:03.395Z,8.67
2018-12-25T12:48:26.077Z,7.63
2018-12-25T12:51:48.927Z,6.23
2018-12-25T12:55:11.139Z,8.03
2018-12-25T12:58:33.588Z,10.03
2018-12-25T13:01:55.982Z,7.80
2018-12-25T13:05:18.363Z,8.30
2018-12-25T13:08:40.734Z,4.90
2018-12-25T13:12:03.250Z,8.70
2018-12-25T13:15:25.689Z,7.23
2018-12-25T13:18:48.177Z,4.67
2018-12-25T13:22:10.398Z,6.97
2018-12-25T13:25:32.957Z,9.23
2018-12-25T13:28:55.646Z,9.43
2018-12-25T13:32:18.266Z,5.70
2018-12-25T13:35:41.125Z,8.43
2018-12-25T13:39:05.550Z,6.93
2018-12-25T13:42:28.378Z,9.17
2018-12-25T13:45:50.926Z,11.50
2018-12-25T13:49:13.700Z,11.57
2018-12-25T13:52:36.539Z,9.53
2018-12-25T13:55:59.309Z,7.37
2018-12-25T13:59:21.910Z,6.87
2018-12-25T14:02:44.419Z,6.87
2018-12-25T14:06:06.537Z,5.13
2018-12-25T14:09:28.929Z,6.33
2018-12-25T14:12:51.353Z,6.70
2018-12-25T14:16:14.042Z,6.33
2018-12-25T14:19:36.637Z,5.87
2018-12-25T14:22:59.258Z,8.17
2018-12-25T14:26:21.734Z,5.20
2018-12-25T14:29:44.398Z,6.97
2018-12-25T14:33:06.757Z,9.20
2018-12-25T14:36:29.297Z,7.77
2018-12-25T14:39:51.449Z,8.60
2018-12-25T14:43:14.100Z,14.57
2018-12-25T14:46:36.326Z,8.63
2018-12-25T14:49:58.878Z,4.17
2018-12-25T14:53:21.393Z,6.60
2018-12-25T14:56:44.081Z,10.13
2018-12-25T15:00:08.959Z,8.43
2018-12-25T15:03:31.693Z,9.97
2018-12-25T15:06:54.148Z,8.67
2018-12-25T15:10:16.747Z,5.30
2018-12-25T15:13:38.958Z,14.77
2018-12-25T15:17:01.418Z,6.97
2018-12-25T15:20:23.909Z,8.73
2018-12-25T15:23:46.737Z,9.07
2018-12-25T15:27:08.880Z,6.97
2018-12-25T15:30:31.550Z,9.80
2018-12-25T15:33:54.194Z,8.93
2018-12-25T15:37:17.102Z,6.00
2018-12-25T15:40:39.696Z,9.63
2018-12-25T15:44:02.410Z,5.67
2018-12-25T15:47:24.857Z,11.33
2018-12-25T15:50:47.250Z,8.10
2018-12-25T15:54:09.662Z,7.93
2018-12-25T15:57:32.052Z,5.67
2018-12-25T16:00:54.506Z,7.13
2018-12-25T16:04:16.822Z,8.93
2018-12-25T16:07:39.650Z,6.67
2018-12-25T16:11:02.340Z,9.17
2018-12-25T16:14:24.874Z,11.07
2018-12-25T16:17:47.609Z,6.63
2018-12-25T16:21:10.038Z,12.07
2018-12-25T16:24:32.449Z,8.67
2018-12-25T16:27:54.854Z,12.03
2018-12-25T16:31:17.362Z,9.23
2018-12-25T16:34:39.569Z,8.13
2018-12-25T16:38:02.205Z,10.90
2018-12-25T16:41:24.605Z,7.13
2018-12-25T16:44:47.090Z,9.17
2018-12-25T16:48:09.253Z,9.33
2018-12-25T16:51:32.106Z,6.03
2018-12-25T16:54:54.410Z,7.87
2018-12-25T16:58:17.197Z,6.00
2018-12-25T17:01:40.114Z,7.67
2018-12-25T17:05:02.743Z,6.93
2018-12-25T17:08:25.569Z,9.93
2018-12-25T17:11:48.133Z,13.30
2018-12-25T17:15:10.799Z,10.03
2018-12-25T17:18:33.341Z,6.90
2018-12-25T17:21:55.725Z,7.57
2018-12-25T17:25:18.269Z,8.73
2018-12-25T17:28:40.682Z,9.07
2018-12-25T17:32:02.839Z,9.87
2018-12-25T17:35:25.260Z,10.93
2018-12-25T17:38:47.801Z,11.70
2018-12-25T17:42:10.494Z,12.10
2018-12-25T17:45:33.162Z,5.70
2018-12-25T17:48:55.956Z,9.30
2018-12-25T17:52:18.703Z,7.97
2018-12-25T17:55:41.192Z,7.20
2018-12-25T17:59:03.757Z,7.07
2018-12-25T18:02:26.250Z,5.33
2018-12-25T18:05:48.737Z,8.07
2018-12-25T18:09:11.154Z,8.43
2018-12-25T18:12:33.639Z,10.67
2018-12-25T18:15:55.969Z,10.03
2018-12-25T18:19:18.550Z,10.70
2018-12-25T18:22:41.194Z,8.10
2018-12-25T18:26:03.730Z,5.07
2018-12-25T18:29:26.365Z,7.10
2018-12-25T18:32:49.106Z,6.77
2018-12-25T18:36:11.388Z,11.33
2018-12-25T18:39:34.229Z,9.50
2018-12-25T18:42:56.494Z,7.80
2018-12-25T18:46:18.661Z,6.77
2018-12-25T18:49:40.760Z,12.87
2018-12-25T18:53:02.856Z,5.20
2018-12-25T18:56:24.899Z,5.63
2018-12-25T18:59:47.257Z,9.97
2018-12-25T19:03:09.370Z,7.67
2018-12-25T19:06:33.641Z,8.53
2018-12-25T19:09:56.185Z,9.03
2018-12-25T19:13:18.997Z,7.50
2018-12-25T19:16:41.454Z,8.43
2018-12-25T19:20:03.815Z,8.63
2018-12-25T19:23:26.373Z,6.27
2018-12-25T19:26:49.000Z,9.70
2018-12-25T19:30:12.045Z,8.60
2018-12-25T19:33:34.641Z,8.20
2018-12-25T19:36:57.226Z,11.93
2018-12-25T19:40:20.300Z,9.50
2018-12-25T19:43:42.651Z,10.87
2018-12-25T19:47:05.034Z,10.70
2018-12-25T19:50:27.597Z,6.40
2018-12-25T19:53:50.494Z,7.97
2018-12-25T19:57:12.877Z,6.50
2018-12-25T20:00:35.485Z,8.63
2018-12-25T20:04:19.642Z,6.53
2018-12-25T20:08:18.329Z,7.53
2018-12-25T20:12:11.198Z,5.97
2018-12-25T20:16:06.650Z,8.60
2018-12-25T20:19:54.142Z,8.07
2018-12-25T20:23:54.122Z,7.10
2018-12-25T20:27:53.738Z,7.87
2018-12-25T20:31:48.291Z,9.87
2018-12-25T20:35:47.485Z,8.10
2018-12-25T20:39:50.125Z,8.80
2018-12-25T20:43:41.997Z,6.40
2018-12-25T20:47:38.167Z,7.23
2018-12-25T20:51:37.008Z,6.10
2018-12-25T20:55:46.478Z,4.67
2018-12-25T20:59:43.373Z,5.70
2018-12-25T21:03:36.446Z,8.47
2018-12-25T21:07:47.082Z,8.00
2018-12-25T21:11:42.183Z,5.97
2018-12-25T21:15:37.228Z,5.80
2018-12-25T21:19:28.249Z,5.20
2018-12-25T21:23:27.609Z,7.17
2018-12-25T21:27:43.207Z,8.40
2018-12-25T21:31:06.090Z,7.47
2018-12-25T21:34:28.664Z,6.07
2018-12-25T21:37:51.810Z,8.57
2018-12-25T21:41:15.498Z,10.33
2018-12-25T21:44:38.273Z,7.50
2018-12-25T21:48:00.981Z,7.77
2018-12-25T21:51:24.093Z,7.10
2018-12-25T21:54:47.049Z,6.63
2018-12-25T21:58:09.597Z,9.93
2018-12-25T22:01:31.842Z,6.20
2018-12-25T22:04:54.294Z,8.23
2018-12-25T22:08:16.388Z,7.50
2018-12-25T22:11:38.977Z,5.50
2018-12-25T22:15:01.330Z,7.70
2018-12-25T22:18:23.771Z,5.97
2018-12-25T22:21:46.292Z,7.17
2018-12-25T22:25:08.524Z,6.60
2018-12-25T22:28:30.978Z,7.27
2018-12-25T22:31:53.414Z,9.43
2018-12-25T22:35:16.117Z,6.00
2018-12-25T22:38:38.700Z,7.10
2018-12-25T22:42:01.670Z,9.33
2018-12-25T22:45:24.523Z,4.30
2018-12-25T22:48:47.004Z,5.80
2018-12-25T22:52:09.789Z,7.40
2018-12-25T22:55:35.907Z,7.57
2018-12-25T22:58:57.192Z,7.47
2018-12-25T23:02:19.868Z,5.80
2018-12-25T23:05:42.796Z,8.07
2018-12-25T23:09:06.954Z,8.17
2018-12-25T23:12:29.574Z,7.87
2018-12-25T23:15:51.953Z,9.63
2018-12-25T23:19:14.542Z,8.17
2018-12-25T23:22:37.368Z,11.80
2018-12-25T23:26:00.178Z,9.40
2018-12-25T23:29:22.621Z,6.67
2018-12-25T23:32:45.090Z,9.77
2018-12-25T23:36:07.294Z,7.23
2018-12-25T23:39:29.717Z,8.73
2018-12-25T23:42:51.764Z,10.30
2018-12-25T23:46:14.166Z,5.53
2018-12-25T23:49:36.546Z,10.40
2018-12-25T23:52:59.323Z,9.43
2018-12-25T23:56:21.782Z,10.03
2018-12-25T23:59:44.147Z,7.47
